M I D A S
Marine Information and Data Acquisition System
Tripno 62 of the Zeeleeuw from 2001-08-30 06:05:14 to 2001-08-30 14:20:00
Back to CruiseResearch ActivitiesStationsMapUnderway DataData graphs

EquipmentUnitsComment
TimeDGPSUTC
LatitudeDGPSDM.mWGS84
LongitudeDGPSDM.mWGS84
HeadingGyrodeg 
SOGDGPSknotsSpeed over ground
COGDGPSdegCourse over ground
DepthEcho soundermeters200 kHz
Missing or incorrect values are displayed as -999
Navigation data collected by the RV Zeeleeuw from 2001-08-30 06:05:14 to 2001-08-30 14:20:00
Time Latitude Longitude Heading SOG COG Depth
2001-08-30 06:06:19 51°13.677 2°55.922 0.5   305 -999
2001-08-30 06:07:19 51°13.676 2°55.922 0.7   2.6 -999
2001-08-30 06:08:19 51°13.676 2°55.923 0.8   317 -999
2001-08-30 06:09:19 51°13.676 2°55.923 0.8   172.6 -999
2001-08-30 06:10:19 51°13.676 2°55.923 0.8   354 -999
2001-08-30 06:11:19 51°13.676 2°55.923 1.2   336.1 -999
2001-08-30 06:12:19 51°13.676 2°55.923 0.8   348.8 -999
2001-08-30 06:13:19 51°13.677 2°55.923 0.7   342.4 -999
2001-08-30 06:14:19 51°13.677 2°55.924 0.7   4.8 -999
2001-08-30 06:15:19 51°13.677 2°55.924 0.7   351.5 -999
2001-08-30 06:16:19 51°13.677 2°55.924 0.5   343.4 -999
2001-08-30 06:17:19 51°13.677 2°55.924 0.7   332.8 -999
2001-08-30 06:18:19 51°13.677 2°55.924 0.7   318.3 -999
2001-08-30 06:19:19 51°13.677 2°55.924 0.7   340.3 -999
2001-08-30 06:20:19 51°13.677 2°55.924 0.7   343.1 -999
2001-08-30 06:21:19 51°13.677 2°55.924 0.7   338.7 -999
2001-08-30 06:22:19 51°13.677 2°55.924 0.7   6.6 -999
2001-08-30 06:23:19 51°13.677 2°55.923 0.5   346.2 -999
2001-08-30 06:24:19 51°13.677 2°55.924 0.7   336 -999
2001-08-30 06:25:19 51°13.677 2°55.924 0.7   346.9 -999
2001-08-30 06:26:19 51°13.677 2°55.924 0.7   335.8 -999
2001-08-30 06:27:19 51°13.677 2°55.923 0.7   339.8 -999
2001-08-30 06:28:19 51°13.677 2°55.923 0.7   334.6 -999
2001-08-30 06:29:19 51°13.676 2°55.923 0.7   322 -999
2001-08-30 06:30:19 51°13.676 2°55.923 0.7   327.4 -999
2001-08-30 06:31:19 51°13.676 2°55.923 0.7   351.3 -999
2001-08-30 06:32:19 51°13.676 2°55.923 0.7   24.1 -999
2001-08-30 06:33:19 51°13.676 2°55.923 0.8   300.3 -999
2001-08-30 06:34:19 51°13.676 2°55.923 0.8   351 -999
2001-08-30 06:35:19 51°13.676 2°55.923 0.7   13 -999
2001-08-30 06:36:19 51°13.676 2°55.923 0.7   37.4 -999
2001-08-30 06:37:20 51°13.676 2°55.923     355.5 -999
2001-08-30 06:38:30 51°13.676 2°55.924     1.1 -999
2001-08-30 06:39:30 51°13.676 2°55.924 0.2   315.6 -999
2001-08-30 06:40:30 51°13.676 2°55.924     299.8 -999
2001-08-30 06:41:30 51°13.676 2°55.924 0.5   24.9 -999
2001-08-30 06:42:30 51°13.676 2°55.924 130.7   290 -999
2001-08-30 06:43:24 51°13.676 2°55.924 130.8   316.2 6.4
2001-08-30 06:44:24 51°13.676 2°55.924 130.8   336 6.5
2001-08-30 06:45:24 51°13.677 2°55.924 130.8   330.3 6.5
2001-08-30 06:46:26 51°13.677 2°55.924 131   52.5 -999
2001-08-30 06:47:26 51°13.677 2°55.924 130.8   24.7 6.6
2001-08-30 06:48:26 51°13.676 2°55.924 131   12 -999
2001-08-30 06:49:26 51°13.677 2°55.924 131   10.9 6.6
2001-08-30 06:50:25 51°13.676 2°55.924 131.2   334.2 6.6
2001-08-30 06:51:24 51°13.676 2°55.924 131.2   1.7 6.6
2001-08-30 06:52:24 51°13.676 2°55.923 131.2   301.1 6.6
2001-08-30 06:53:26 51°13.676 2°55.923 133   46.5 -999
2001-08-30 06:54:24 51°13.676 2°55.923 132.2   305.3 6.6
2001-08-30 06:55:24 51°13.676 2°55.924 131.2 0.1 50.4 6.7
2001-08-30 06:56:26 51°13.676 2°55.924 131.7   11.2 6.7
2001-08-30 06:57:26 51°13.676 2°55.924 131.7   169.1 6.7
2001-08-30 06:58:24 51°13.676 2°55.924 131.5   353.1 6.7
2001-08-30 06:59:24 51°13.676 2°55.924 131.5   16.3 6.7
2001-08-30 07:00:26 51°13.675 2°55.924 119.2 0.1 179.3 6.8
2001-08-30 07:01:24 51°13.674 2°55.924 106.3 0.1 178.5 6.8
2001-08-30 07:02:24 51°13.674 2°55.917 106.5 0.5 279.2 7.3
2001-08-30 07:03:24 51°13.672 2°55.921 114.7 0.6 109.2 7
2001-08-30 07:04:26 51°13.692 2°55.854 115.7 4.2 296.7 -999
2001-08-30 07:05:26 51°13.708 2°55.755 95.8 3.6 279.1 -999
2001-08-30 07:06:24 51°13.716 2°55.716 47.3 1.7 36.9 11.5
2001-08-30 07:07:24 51°13.797 2°55.681 332 6.6 328.8 11
2001-08-30 07:08:26 51°13.907 2°55.583 338.2 8.5 333.5 10.3
2001-08-30 07:09:26 51°14.041 2°55.481 339 8.3 335.5 10.5
2001-08-30 07:10:26 51°14.143 2°55.408 342.5 6.1 339.9 10.6
2001-08-30 07:11:26 51°14.233 2°55.312 319.5 7.8 316.8 10.6
2001-08-30 07:12:26 51°14.329 2°55.134 312.3 9.2 309.5 10.6
2001-08-30 07:13:26 51°14.388 2°54.905 284.8 9.6 280.7 10.6
2001-08-30 07:14:24 51°14.406 2°54.631 279.3 11.6 275 10.8
2001-08-30 07:15:26 51°14.402 2°54.305 266.2 12 262.6 10
2001-08-30 07:16:26 51°14.318 2°54.018 242.8 12.1 239.8 9.8
2001-08-30 07:17:26 51°14.217 2°53.739 238.7 12.3 236.6 9.9
2001-08-30 07:18:26 51°14.109 2°53.446 242 13 239.4 9.9
2001-08-30 07:19:26 51°13.995 2°53.132 240.8 13.8 238.5 10.3
2001-08-30 07:20:26 51°13.874 2°52.814 240.2 14.2 237.1 10.7
2001-08-30 07:21:24 51°13.765 2°52.499 245.8 14.1 242.6 10.9
2001-08-30 07:22:26 51°13.644 2°52.166 241.8 14 238.6 10.9
2001-08-30 07:23:26 51°13.526 2°51.847 241.7 14 238.8 10.8
2001-08-30 07:24:26 51°13.408 2°51.525 242.7 14 239.9 11
2001-08-30 07:25:24 51°13.292 2°51.214 242.8 14.1 239.9 11.2
2001-08-30 07:26:26 51°13.172 2°50.879 244.7 14.2 241 11.3
2001-08-30 07:27:26 51°13.06 2°50.553 241.5 14.1 239.1 11.5
2001-08-30 07:28:26 51°12.938 2°50.237 244.7 14 241.9 11.6
2001-08-30 07:29:26 51°12.817 2°49.92 242.2 14 239.1 11.7
2001-08-30 07:30:26 51°12.695 2°49.605 244.7 14 241.4 11.8
2001-08-30 07:31:26 51°12.573 2°49.287 241.3 14.1 237.8 11.8
2001-08-30 07:32:26 51°12.461 2°48.963 245.3 14 242.9 11.8
2001-08-30 07:33:26 51°12.351 2°48.64 243.2 13.8 240.9 12
2001-08-30 07:34:26 51°12.233 2°48.325 244.3 13.8 241.8 12
2001-08-30 07:35:26 51°12.126 2°47.998 243.8 13.8 241.5 11.9
2001-08-30 07:36:26 51°12.018 2°47.673 246.3 13.9 243.4 12.1
2001-08-30 07:37:26 51°11.913 2°47.349 245.7 13.8 242.5 12.1
2001-08-30 07:38:26 51°11.805 2°47.029 245.5 13.9 242.3 11.9
2001-08-30 07:39:26 51°11.699 2°46.708 244.5 13.6 241.9 11.7
2001-08-30 07:40:26 51°11.595 2°46.383 246 13.9 244.2 11.9
2001-08-30 07:41:26 51°11.492 2°46.059 248 13.7 244.8 11.9
2001-08-30 07:42:26 51°11.385 2°45.737 243.5 13.7 241 11.7
2001-08-30 07:43:26 51°11.283 2°45.412 247.8 13.6 244.9 11.5
2001-08-30 07:44:26 51°11.179 2°45.092 246.7 13.6 243.3 11.4
2001-08-30 07:45:26 51°11.082 2°44.767 246 13.6 243 11.2
2001-08-30 07:46:26 51°10.98 2°44.445 244.7 13.6 242.1 11
2001-08-30 07:47:26 51°10.88 2°44.122 245 13.6 241.9 10.8
2001-08-30 07:48:26 51°10.785 2°43.797 244.5 13.5 242.6 10.6
2001-08-30 07:49:26 51°10.688 2°43.474 247.5 13.5 245.1 10.5
2001-08-30 07:50:26 51°10.591 2°43.151 249.2 13.5 246.3 10.3
2001-08-30 07:51:26 51°10.494 2°42.83 250.3 13.5 246.4 10.1
2001-08-30 07:52:26 51°10.399 2°42.507 250 13.4 246.6 10.2
2001-08-30 07:53:26 51°10.32 2°42.175 256.5 13.4 253.2 10.2
2001-08-30 07:54:26 51°10.265 2°41.831 260.8 13.4 257.9 10.4
2001-08-30 07:55:26 51°10.217 2°41.483 259.3 13.5 256.7 10.8
2001-08-30 07:56:26 51°10.168 2°41.134 260 13.5 257.5 11.1
2001-08-30 07:57:26 51°10.118 2°40.787 260 13.5 257.4 11.5
2001-08-30 07:58:26 51°10.061 2°40.442 259.7 13.5 256.8 11.8
2001-08-30 07:59:26 51°10.008 2°40.096 258.2 13.5 255.8 12.1
2001-08-30 08:00:26 51°9.956 2°39.749 257.8 13.5 255 12.2
2001-08-30 08:01:26 51°9.9 2°39.404 258.8 13.5 256 12.5
2001-08-30 08:02:26 51°9.842 2°39.059 255 13.5 252.6 13
2001-08-30 08:03:26 51°9.783 2°38.717 257.3 13.4 255.4 13.3
2001-08-30 08:04:26 51°9.722 2°38.378 254 13.4 252.1 13.9
2001-08-30 08:05:26 51°9.663 2°38.038 256.8 13.3 254.8 14.5
2001-08-30 08:06:26 51°9.611 2°37.697 257.5 13.3 255.5 15.3
2001-08-30 08:07:24 51°9.558 2°37.369 257.5 13.2 255.5 16.3
2001-08-30 08:08:26 51°9.51 2°37.016 261.8 13.3 259.8 17.3
2001-08-30 08:09:26 51°9.458 2°36.676 255.8 13.3 254.6 17.3
2001-08-30 08:10:26 51°9.397 2°36.34 257.5 13.3 255.8 17.4
2001-08-30 08:11:24 51°9.34 2°36.016 258.7 13.2 256.8 17.3
2001-08-30 08:12:26 51°9.287 2°35.666 258.3 13.2 256.1 18
2001-08-30 08:13:26 51°9.238 2°35.325 260 13.3 258.4 18.1
2001-08-30 08:14:26 51°9.188 2°34.986 258.8 13.1 257.2 18.1
2001-08-30 08:15:24 51°9.14 2°34.66 257.8 13.1 256.5 17.3
2001-08-30 08:16:26 51°9.084 2°34.315 257.8 13 255.6 18.5
2001-08-30 08:17:26 51°9.035 2°33.978 258.7 13 257.4 18.1
2001-08-30 08:18:26 51°9.085 2°33.674 317 12.4 314.1 19.5
2001-08-30 08:19:24 51°9.265 2°33.728 53.3 13 49.7 19.3
2001-08-30 08:20:26 51°9.412 2°34.036 48.8 14.2 47.8 19.7
2001-08-30 08:21:26 51°9.577 2°34.303 48.5 14.1 46.5 17.9
2001-08-30 08:22:26 51°9.747 2°34.56 43.3 14.1 42.3 15.5
2001-08-30 08:23:26 51°9.933 2°34.781 38 13.9 36.3 12.6
2001-08-30 08:24:26 51°10.116 2°35.007 40.5 13.9 38.3 12.8
2001-08-30 08:25:26 51°10.305 2°35.225 38.5 14 36.8 12.8
2001-08-30 08:26:24 51°10.486 2°35.435 39.7 13.9 37.7 11.9
2001-08-30 08:27:26 51°10.678 2°35.669 41 14.1 38.6 12
2001-08-30 08:28:26 51°10.862 2°35.902 41.2 14.1 38.8 12.3
2001-08-30 08:29:26 51°11.052 2°36.119 38.8 14 36.5 12.7
2001-08-30 08:30:26 51°11.23 2°36.361 42.2 14 40.3 13.1
2001-08-30 08:31:26 51°11.409 2°36.599 41.2 14 39.6 13.3
2001-08-30 08:32:26 51°11.595 2°36.823 39.5 14 37.9 13.6
2001-08-30 08:33:26 51°11.787 2°37.029 33 13.9 31 13.7
2001-08-30 08:34:26 51°11.98 2°37.234 36.7 13.9 35 13.7
2001-08-30 08:35:26 51°12.169 2°37.447 35.3 13.9 33.6 13.8
2001-08-30 08:36:26 51°12.374 2°37.613 32 13.8 29.5 13.9
2001-08-30 08:37:24 51°12.562 2°37.811 37.3 14.1 35.2 14.4
2001-08-30 08:38:26 51°12.76 2°38.029 39 14 36.8 14.8
2001-08-30 08:39:26 51°12.947 2°38.253 39.8 14.1 37.7 15.3
2001-08-30 08:40:26 51°13.125 2°38.498 45.2 14.2 42.9 15.8
2001-08-30 08:41:26 51°13.308 2°38.734 35 14.2 33.4 15.9
2001-08-30 08:42:26 51°13.523 2°38.88 20.3 14 19.2 15.8
2001-08-30 08:43:26 51°13.746 2°38.976 14.5 13.7 12.9 16.3
2001-08-30 08:44:26 51°13.964 2°38.972 344.7 13.1 342.7 15.2
2001-08-30 08:45:26 51°14.099 2°38.722 297.8 12.7 295.6 14.7
2001-08-30 08:46:26 51°14.124 2°38.39 264.3 12.9 261.7 18.8
2001-08-30 08:47:26 51°14.049 2°38.069 246.2 13 242.7 19.3
2001-08-30 08:48:26 51°13.957 2°37.758 248.2 12.9 244.7 19.6
2001-08-30 08:49:26 51°13.866 2°37.453 251.2 12.7 246.7 20.9
2001-08-30 08:50:26 51°13.779 2°37.146 251.2 12.7 246.4 20.8
2001-08-30 08:51:26 51°13.686 2°36.845 249.2 12.6 244.4 21.1
2001-08-30 08:52:26 51°13.602 2°36.539 251.7 12.5 247.7 20.5
2001-08-30 08:53:26 51°13.517 2°36.232 251.2 12.6 247.2 19.9
2001-08-30 08:54:26 51°13.432 2°35.925 251 12.7 247.5 19.4
2001-08-30 08:55:26 51°13.35 2°35.616 250.5 12.6 246.8 19.3
2001-08-30 08:56:26 51°13.266 2°35.31 251.2 12.6 248.4 19.1
2001-08-30 08:57:26 51°13.183 2°35.005 249.5 12.5 245.9 19
2001-08-30 08:58:26 51°13.098 2°34.702 249.2 12.5 247.1 19.2
2001-08-30 08:59:26 51°13.018 2°34.394 248 12.7 245.6 19.2
2001-08-30 09:00:26 51°12.934 2°34.088 250.5 12.7 247.3 18.5
2001-08-30 09:01:26 51°12.848 2°33.783 248.5 12.6 246.2 17
2001-08-30 09:02:25 51°12.757 2°33.489 248.3 12.6 245.3 17.5
2001-08-30 09:03:26 51°12.668 2°33.18 250.2 12.6 245.9 16.3
2001-08-30 09:04:26 51°12.582 2°32.875 250.3 12.6 245.5 18.1
2001-08-30 09:05:26 51°12.505 2°32.565 250.8 12.7 247.5 19.2
2001-08-30 09:06:26 51°12.422 2°32.257 251.8 12.7 248.5 21.1
2001-08-30 09:07:26 51°12.336 2°31.951 248.2 12.6 245.1 23.6
2001-08-30 09:08:26 51°12.252 2°31.644 247.5 12.7 244.3 24
2001-08-30 09:09:26 51°12.168 2°31.334 248.3 12.6 245.4 24.8
2001-08-30 09:10:26 51°12.083 2°31.027 249.8 12.7 246.6 24.8
2001-08-30 09:11:26 51°11.997 2°30.72 248.7 12.7 244.4 24.5
2001-08-30 09:12:26 51°11.91 2°30.413 248.2 12.7 245.4 24.7
2001-08-30 09:13:26 51°11.829 2°30.101 252 12.8 248.9 24.7
2001-08-30 09:14:26 51°11.748 2°29.79 249.8 12.7 246.8 24.7
2001-08-30 09:15:26 51°11.662 2°29.485 250 12.7 246.7 25
2001-08-30 09:16:26 51°11.598 2°29.17 258.5 12.6 255.6 25.4
2001-08-30 09:17:26 51°11.552 2°28.853 257.8 12 256 25.8
2001-08-30 09:18:26 51°11.498 2°28.549 257.2 11.9 254.4 25
2001-08-30 09:19:26 51°11.444 2°28.248 259.5 11.9 256.5 24.1
2001-08-30 09:20:24 51°11.386 2°27.953 257.2 12.2 253.2 24.4
2001-08-30 09:21:26 51°11.33 2°27.631 256.3 12.3 252.4 25.4
2001-08-30 09:22:26 51°11.281 2°27.316 259.7 12.2 256 24.7
2001-08-30 09:23:26 51°11.229 2°27.002 261 12.3 257.3 23.9
2001-08-30 09:24:26 51°11.18 2°26.684 259.7 12.4 255.6 22.6
2001-08-30 09:25:26 51°11.128 2°26.366 259.5 12.3 256.2 20.6
2001-08-30 09:26:26 51°11.074 2°26.054 258.3 12.2 255.8 19
2001-08-30 09:27:26 51°11.021 2°25.742 258.3 12.2 255.1 17.1
2001-08-30 09:28:26 51°11.03 2°25.438 300.2 11.9 299.6 15.3
2001-08-30 09:29:26 51°11.216 2°25.316 5.3 13.4 2.1 21.6
2001-08-30 09:30:26 51°11.447 2°25.356 358.8 14 359.4 25.4
2001-08-30 09:31:26 51°11.681 2°25.358 359.2 14.1 359.5 27.7
2001-08-30 09:32:26 51°11.915 2°25.366 0.5 14.1 0.3 26.8
2001-08-30 09:33:26 51°12.15 2°25.38 2.5 14.1 2.4 27.7
2001-08-30 09:34:26 51°12.383 2°25.391 1.8 14 1.7 28.2
2001-08-30 09:35:26 51°12.613 2°25.444 14.3 14.1 14.1 27.6
2001-08-30 09:36:26 51°12.827 2°25.596 32.3 14.2 30.8 28.2
2001-08-30 09:37:26 51°13.001 2°25.851 50 14.4 47.6 28.4
2001-08-30 09:38:26 51°13.164 2°26.133 49 14.4 46.7 28.8
2001-08-30 09:39:26 51°13.327 2°26.413 51 14.4 47.9 28.6
2001-08-30 09:40:26 51°13.486 2°26.701 52.3 14.4 49.8 29
2001-08-30 09:41:26 51°13.647 2°26.982 51.3 14.3 48.8 28.6
2001-08-30 09:42:26 51°13.804 2°27.268 52 14.4 49.1 28.2
2001-08-30 09:43:26 51°13.963 2°27.554 49.7 14.4 47.3 28.9
2001-08-30 09:44:26 51°14.125 2°27.837 49.7 14.4 47.1 28.7
2001-08-30 09:45:26 51°14.285 2°28.124 51.5 14.5 48.9 29.4
2001-08-30 09:46:26 51°14.443 2°28.413 51.8 14.5 49 29.7
2001-08-30 09:47:26 51°14.599 2°28.707 53 14.5 49.7 29.9
2001-08-30 09:48:26 51°14.757 2°28.999 52 14.6 49.1 29.4
2001-08-30 09:49:26 51°14.914 2°29.294 52.7 14.6 49.7 29.3
2001-08-30 09:50:26 51°15.073 2°29.588 52.3 14.7 49 29.6
2001-08-30 09:51:26 51°15.233 2°29.88 51.2 14.7 48.5 29.3
2001-08-30 09:52:26 51°15.394 2°30.171 50.8 14.7 48.5 29.7
2001-08-30 09:53:26 51°15.556 2°30.463 52.5 14.7 49.6 29.5
2001-08-30 09:54:26 51°15.715 2°30.759 51.8 14.7 49.2 29.5
2001-08-30 09:55:26 51°15.876 2°31.054 52.3 14.7 49.8 29.2
2001-08-30 09:56:26 51°16.038 2°31.348 51.7 14.8 49.1 29
2001-08-30 09:57:26 51°16.198 2°31.646 52 14.8 49.1 29.2
2001-08-30 09:58:26 51°16.359 2°31.944 51.7 14.9 48.8 29.3
2001-08-30 09:59:26 51°16.52 2°32.244 52 14.9 49.4 28.4
2001-08-30 10:00:26 51°16.683 2°32.54 50.3 14.8 48.1 26.8
2001-08-30 10:01:26 51°16.848 2°32.833 51.2 14.8 48.4 26
2001-08-30 10:02:26 51°16.978 2°33.156 83 14.2 77.6 26.5
2001-08-30 10:03:26 51°16.854 2°33.369 177 12.2 168.8 26.5
2001-08-30 10:04:26 51°16.655 2°33.504 153 13.5 145.4 23.2
2001-08-30 10:05:26 51°16.465 2°33.706 155.2 14 148 12.6
2001-08-30 10:06:26 51°16.263 2°33.881 160.5 14 154.2 10.7
2001-08-30 10:07:26 51°16.064 2°34.07 154.7 13.8 147.8 13.8
2001-08-30 10:08:26 51°15.868 2°34.267 155.2 13.8 147.7 22.4
2001-08-30 10:09:26 51°15.827 2°34.575 62.3 13.3 57 27.3
2001-08-30 10:10:26 51°16.016 2°34.804 43.5 14.6 37.8 27.3
2001-08-30 10:11:26 51°16.202 2°35.061 47.8 14.7 42 27.4
2001-08-30 10:12:26 51°16.371 2°35.346 52.2 14.8 46.6 28
2001-08-30 10:13:26 51°16.537 2°35.638 53.5 14.8 48.5 28.5
2001-08-30 10:14:26 51°16.702 2°35.927 51.5 14.7 48 28.4
2001-08-30 10:15:26 51°16.869 2°36.211 50.2 14.6 46.7 28.5
2001-08-30 10:16:26 51°17.034 2°36.497 50.5 14.6 47.1 29
2001-08-30 10:17:26 51°17.201 2°36.78 50.7 14.7 47 28.9
2001-08-30 10:18:26 51°17.37 2°37.063 51.3 14.8 46.4 29.3
2001-08-30 10:19:26 51°17.535 2°37.359 52.8 14.9 48.5 28.8
2001-08-30 10:20:26 51°17.702 2°37.65 51.2 14.9 46.7 29.2
2001-08-30 10:21:26 51°17.913 2°37.791 353.8 13.4 354 28.1
2001-08-30 10:22:26 51°18.039 2°37.542 298 12.8 297.5 26.3
2001-08-30 10:23:26 51°18.147 2°37.244 302.8 13 301.8 24.1
2001-08-30 10:24:26 51°18.265 2°36.953 304.8 13 303.5 20.5
2001-08-30 10:25:26 51°18.379 2°36.665 302.7 12.8 301.7 17.5
2001-08-30 10:26:26 51°18.498 2°36.383 305 12.8 304.1 21.3
2001-08-30 10:27:26 51°18.622 2°36.107 305.5 12.8 305 27.1
2001-08-30 10:28:26 51°18.744 2°35.827 302.7 12.8 304.6 23.8
2001-08-30 10:29:26 51°18.858 2°35.54 301.2 12.9 303.3 24.3
2001-08-30 10:30:26 51°18.967 2°35.248 301.3 12.8 301.3 24.2
2001-08-30 10:31:26 51°19.138 2°35.054 350.7 13.1 345.1 21.3
2001-08-30 10:32:26 51°19.292 2°35.291 65.5 14.4 62.4 22.5
2001-08-30 10:33:26 51°19.429 2°35.622 58 15 54.5 23.4
2001-08-30 10:34:26 51°19.58 2°35.94 54.7 15 51.8 23
2001-08-30 10:35:26 51°19.732 2°36.257 55.2 14.9 51.8 23.3
2001-08-30 10:36:26 51°19.887 2°36.565 53.8 14.9 50.4 23.5
2001-08-30 10:37:26 51°20.042 2°36.874 52.2 14.8 49.8 24.4
2001-08-30 10:38:26 51°20.197 2°37.177 55.7 14.8 52.6 23.7
2001-08-30 10:39:26 51°20.354 2°37.479 54.2 14.7 50.7 25.1
2001-08-30 10:40:26 51°20.506 2°37.788 53.8 14.9 51.3 25.5
2001-08-30 10:41:26 51°20.668 2°38.084 52.2 14.7 49 25.6
2001-08-30 10:42:27 51°20.823 2°38.389 54.8 14.6 50.8 26
2001-08-30 10:43:27 51°20.978 2°38.69 55.5 14.7 51.6 25.8
2001-08-30 10:44:27 51°21.065 2°39.031 97.7 13.3 93.5 27.1
2001-08-30 10:45:27 51°20.962 2°39.343 119.3 13.8 112.3 27.3
2001-08-30 10:46:27 51°20.87 2°39.684 121 13.9 113.4 27.4
2001-08-30 10:47:27 51°20.788 2°40.028 117.7 13.8 109.1 28.6
2001-08-30 10:48:27 51°20.699 2°40.363 122 13.8 113 28.4
2001-08-30 10:49:27 51°20.605 2°40.699 124.5 13.8 115.7 28.6
2001-08-30 10:50:27 51°20.513 2°41.041 122.2 14.1 113.4 29.9
2001-08-30 10:51:27 51°20.412 2°41.378 123.2 14.2 114.8 22.4
2001-08-30 10:52:27 51°20.308 2°41.718 124.2 14.2 116.2 21.4
2001-08-30 10:53:27 51°20.208 2°42.065 120.7 14.4 113.7 21.2
2001-08-30 10:54:27 51°20.109 2°42.412 121.2 14.2 114.6 25.4
2001-08-30 10:55:27 51°20.012 2°42.753 120.2 14.1 113.7 27.2
2001-08-30 10:56:27 51°19.914 2°43.093 122.2 14.1 115.2 27.5
2001-08-30 10:57:27 51°19.825 2°43.436 119 13.8 111 27.3
2001-08-30 10:58:27 51°19.752 2°43.786 115.5 13.9 108.3 26.8
2001-08-30 10:59:27 51°19.668 2°44.136 120.7 14.1 112.7 25.7
2001-08-30 11:00:27 51°19.579 2°44.484 122.5 14 114.1 24.3
2001-08-30 11:01:27 51°19.477 2°44.819 123.8 14.1 115.5 22.7
2001-08-30 11:02:27 51°19.377 2°45.158 119.5 14.2 111.9 13.3
2001-08-30 11:03:26 51°19.284 2°45.499 119 14.3 112.5 16.1
2001-08-30 11:04:27 51°19.193 2°45.859 118.8 14.3 112.5 19.9
2001-08-30 11:05:27 51°19.092 2°46.202 123.5 14.3 116.8 23
2001-08-30 11:06:27 51°18.997 2°46.55 120.3 14.2 113.8 22.9
2001-08-30 11:07:27 51°18.915 2°46.901 119 14.1 111 22.5
2001-08-30 11:08:27 51°18.812 2°47.235 127.8 13.9 121.5 21
2001-08-30 11:09:27 51°18.702 2°47.561 123.3 14.1 116.6 19
2001-08-30 11:10:27 51°18.606 2°47.904 120.2 14.1 113.4 16.5
2001-08-30 11:11:27 51°18.51 2°48.246 118.7 14.1 112.7 14.6
2001-08-30 11:12:27 51°18.409 2°48.579 121.5 13.9 115.3 12.2
2001-08-30 11:13:27 51°18.309 2°48.911 120.2 13.9 114.5 12.2
2001-08-30 11:14:27 51°18.217 2°49.249 121 13.9 115 13.6
2001-08-30 11:15:27 51°18.121 2°49.586 120.8 13.8 115.1 15.5
2001-08-30 11:16:27 51°18.026 2°49.921 119.2 13.7 113.4 15.8
2001-08-30 11:17:27 51°17.936 2°50.259 118.2 13.9 112.1 15.3
2001-08-30 11:18:27 51°17.845 2°50.597 118.8 13.9 112.9 14.4
2001-08-30 11:19:27 51°17.758 2°50.936 117.5 13.7 111.8 13.1
2001-08-30 11:20:27 51°17.664 2°51.27 120.8 14 114.9 11.9
2001-08-30 11:21:27 51°17.559 2°51.595 125 13.7 118.6 12.1
2001-08-30 11:22:27 51°17.457 2°51.921 124 13.6 117.8 12.6
2001-08-30 11:23:27 51°17.312 2°52.185 150.3 13.1 144 12.5
2001-08-30 11:24:26 51°17.128 2°52.367 154.5 13.2 148.8 12.1
2001-08-30 11:25:27 51°16.937 2°52.553 153.8 13.1 148.7 12.1
2001-08-30 11:26:27 51°16.746 2°52.728 155.5 13.2 149 12.2
2001-08-30 11:27:27 51°16.554 2°52.91 155.5 13.4 149.3 13.7
2001-08-30 11:28:27 51°16.362 2°53.092 155.8 13.3 149.5 14.4
2001-08-30 11:29:27 51°16.169 2°53.269 155.8 13.4 149.3 14.1
2001-08-30 11:30:27 51°15.976 2°53.448 155.8 13.2 150.2 13.9
2001-08-30 11:31:27 51°15.784 2°53.632 155.2 13.5 148.8 13.3
2001-08-30 11:32:27 51°15.59 2°53.808 156.8 13.5 151.1 12.5
2001-08-30 11:33:27 51°15.396 2°53.978 157 13.2 150.7 11.7
2001-08-30 11:34:27 51°15.204 2°54.153 154.8 13.1 149.6 11
2001-08-30 11:35:27 51°15.013 2°54.332 153.8 13.4 148.3 10.5
2001-08-30 11:36:27 51°14.823 2°54.516 155.3 13.5 149.4 11.2
2001-08-30 11:37:27 51°14.631 2°54.698 152.2 13.4 147.4 11.2
2001-08-30 11:38:27 51°14.455 2°54.923 142.3 13.6 137.7 11.7
2001-08-30 11:39:27 51°14.299 2°55.182 133.5 13.4 131.8 12.1
2001-08-30 11:40:27 51°14.156 2°55.381 151.3 10 149.7 12
2001-08-30 11:41:27 51°14.04 2°55.468 157.8 6.9 155.5 12.2
2001-08-30 11:42:27 51°13.918 2°55.558 156.7 8.7 154.3 12.2
2001-08-30 11:43:27 51°13.808 2°55.639 157.3 6.1 154.6 12.5
2001-08-30 11:44:27 51°13.743 2°55.716 135.7 4 133.6 12.7
2001-08-30 11:45:27 51°13.712 2°55.784 123.8 2.4 123.7 11.9
2001-08-30 11:46:27 51°13.703 2°55.808 117.2 0.6 124.5 10.8
2001-08-30 11:47:27 51°13.696 2°55.838 108 2.1 106.5 10.3
2001-08-30 11:48:27 51°13.685 2°55.897 113 2.4 108.7 9.4
2001-08-30 11:49:27 51°13.678 2°55.919 134 0.1 118.7 -999
2001-08-30 11:50:27 51°13.678 2°55.923 129.2   336.6 -999